createdAt,value
2019-04-14T00:00:25.094Z,99.90
2019-04-14T00:03:02.298Z,99.90
2019-04-14T00:05:33.981Z,99.90
2019-04-14T00:08:04.647Z,99.90
2019-04-14T00:10:35.454Z,99.90
2019-04-14T00:13:06.737Z,99.90
2019-04-14T00:15:41.945Z,99.90
2019-04-14T00:18:09.600Z,99.90
2019-04-14T00:20:40.452Z,99.90
2019-04-14T00:23:10.890Z,99.90
2019-04-14T00:25:41.236Z,99.90
2019-04-14T00:28:11.720Z,99.90
2019-04-14T00:30:42.525Z,99.90
2019-04-14T00:33:14.897Z,99.90
2019-04-14T00:35:53.896Z,99.90
2019-04-14T00:38:30.386Z,99.90
2019-04-14T00:41:18.055Z,99.90
2019-04-14T00:44:05.688Z,99.90
2019-04-14T00:46:58.131Z,99.90
2019-04-14T00:49:28.984Z,99.90
2019-04-14T00:51:59.315Z,99.90
2019-04-14T00:54:30.352Z,99.90
2019-04-14T00:57:00.898Z,99.90
2019-04-14T00:59:31.213Z,99.90
2019-04-14T01:02:01.958Z,99.90
2019-04-14T01:04:31.771Z,99.90
2019-04-14T01:07:02.227Z,99.90
2019-04-14T01:09:33.027Z,99.90
2019-04-14T01:12:03.806Z,99.90
2019-04-14T01:14:34.407Z,99.90
2019-04-14T01:17:04.813Z,99.90
2019-04-14T01:19:37.290Z,99.90
2019-04-14T01:22:07.500Z,99.90
2019-04-14T01:24:38.160Z,99.90
2019-04-14T01:27:08.111Z,99.90
2019-04-14T01:29:38.509Z,99.90
2019-04-14T01:32:08.813Z,99.90
2019-04-14T01:34:39.162Z,99.90
2019-04-14T01:37:09.426Z,99.90
2019-04-14T01:39:39.738Z,99.90
2019-04-14T01:42:09.617Z,99.90
2019-04-14T01:44:39.769Z,99.90
2019-04-14T01:47:09.944Z,99.90
2019-04-14T01:49:39.803Z,99.90
2019-04-14T01:52:29.606Z,99.90
2019-04-14T01:55:22.305Z,99.90
2019-04-14T01:58:18.586Z,99.90
2019-04-14T02:01:08.409Z,99.90
2019-04-14T02:03:39.023Z,99.90
2019-04-14T02:06:09.351Z,99.90
2019-04-14T02:08:39.341Z,99.90
2019-04-14T02:11:09.481Z,99.90
2019-04-14T02:13:39.682Z,99.90
2019-04-14T02:16:18.808Z,99.90
2019-04-14T02:18:41.147Z,99.90
2019-04-14T02:21:10.873Z,99.90
2019-04-14T02:23:41.171Z,99.90
2019-04-14T02:26:11.224Z,99.90
2019-04-14T02:28:41.867Z,99.90
2019-04-14T02:31:24.675Z,99.90
2019-04-14T02:34:07.520Z,99.90
2019-04-14T02:39:14.052Z,99.90
2019-04-14T02:41:58.544Z,99.90
2019-04-14T02:49:18.704Z,99.90
2019-04-14T02:51:49.733Z,99.90
2019-04-14T02:54:22.820Z,99.90
2019-04-14T02:56:52.182Z,99.90
2019-04-14T02:59:32.057Z,99.90
2019-04-14T03:04:26.084Z,99.90
2019-04-14T03:12:14.419Z,99.90
2019-04-14T03:14:40.535Z,99.90
2019-04-14T03:17:30.145Z,99.90
2019-04-14T03:20:13.998Z,99.90
2019-04-14T03:25:15.278Z,99.90
2019-04-14T03:27:58.615Z,99.90
2019-04-14T03:30:57.859Z,99.90
2019-04-14T03:33:49.474Z,99.90
2019-04-14T03:36:09.007Z,99.90
2019-04-14T03:38:18.496Z,99.90
2019-04-14T03:43:33.893Z,99.90
2019-04-14T03:45:52.004Z,99.90
2019-04-14T03:50:58.364Z,99.90
2019-04-14T03:53:45.875Z,99.90
2019-04-14T03:56:09.149Z,99.90
2019-04-14T03:58:37.816Z,99.90
2019-04-14T04:01:08.340Z,99.90
2019-04-14T04:03:39.177Z,99.90
2019-04-14T04:06:09.722Z,99.90
2019-04-14T04:08:39.852Z,99.90
2019-04-14T04:11:10.553Z,99.90
2019-04-14T04:13:41.308Z,99.90
2019-04-14T04:16:33.418Z,99.90
2019-04-14T04:19:15.045Z,99.90
2019-04-14T04:22:08.537Z,99.90
2019-04-14T04:24:43.312Z,99.90
2019-04-14T04:27:33.035Z,99.90
2019-04-14T04:30:05.970Z,99.90
2019-04-14T04:32:55.823Z,99.90
2019-04-14T04:35:32.554Z,99.90
2019-04-14T04:38:11.881Z,99.90
2019-04-14T04:40:42.436Z,99.90
2019-04-14T04:43:12.621Z,99.90
2019-04-14T04:45:43.141Z,99.90
2019-04-14T04:48:13.592Z,99.90
2019-04-14T04:50:43.607Z,99.90
2019-04-14T04:53:13.793Z,99.90
2019-04-14T04:55:44.045Z,99.90
2019-04-14T04:58:15.182Z,99.90
2019-04-14T05:00:47.341Z,99.90
2019-04-14T05:03:16.922Z,99.90
2019-04-14T05:06:06.877Z,99.90
2019-04-14T05:08:39.163Z,99.90
2019-04-14T05:11:33.798Z,99.90
2019-04-14T05:14:09.173Z,99.90
2019-04-14T05:16:39.652Z,99.90
2019-04-14T05:19:17.253Z,99.90
2019-04-14T05:21:41.544Z,99.90
2019-04-14T05:24:11.659Z,99.90
2019-04-14T05:26:41.776Z,99.90
2019-04-14T05:29:12.449Z,99.90
2019-04-14T05:31:42.563Z,99.90
2019-04-14T05:34:12.903Z,99.90
2019-04-14T05:36:43.383Z,99.90
2019-04-14T05:39:13.730Z,99.90
2019-04-14T05:41:56.849Z,99.90
2019-04-14T05:44:16.460Z,99.90
2019-04-14T05:46:46.995Z,99.90
2019-04-14T05:49:28.601Z,99.90
2019-04-14T05:51:48.301Z,99.90
2019-04-14T05:54:18.680Z,99.90
2019-04-14T05:56:49.316Z,99.90
2019-04-14T05:59:19.839Z,99.90
2019-04-14T06:01:51.072Z,99.90
2019-04-14T06:04:22.169Z,99.90
2019-04-14T06:06:52.260Z,99.90
2019-04-14T06:09:22.338Z,99.90
2019-04-14T06:11:52.047Z,99.90
2019-04-14T06:14:21.720Z,99.90
2019-04-14T06:16:51.101Z,99.90
2019-04-14T06:19:20.465Z,99.90
2019-04-14T06:21:50.143Z,99.90
2019-04-14T06:24:20.779Z,99.90
2019-04-14T06:26:50.894Z,99.90
2019-04-14T06:29:20.938Z,99.90
2019-04-14T06:32:00.411Z,99.90
2019-04-14T06:34:38.486Z,99.90
2019-04-14T06:37:33.459Z,99.90
2019-04-14T06:40:05.114Z,99.90
2019-04-14T06:42:35.218Z,99.90
2019-04-14T06:45:04.800Z,99.90
2019-04-14T06:47:34.609Z,99.90
2019-04-14T06:50:04.115Z,99.90
2019-04-14T06:52:33.548Z,99.90
2019-04-14T06:55:03.358Z,99.90
2019-04-14T06:57:33.823Z,99.90
2019-04-14T07:00:03.232Z,99.90
2019-04-14T07:02:32.988Z,99.90
2019-04-14T07:05:03.494Z,99.90
2019-04-14T07:07:33.471Z,99.90
2019-04-14T07:10:03.630Z,99.90
2019-04-14T07:12:33.706Z,99.90
2019-04-14T07:15:03.826Z,99.90
2019-04-14T07:17:33.868Z,99.90
2019-04-14T07:20:03.346Z,99.90
2019-04-14T07:22:33.554Z,99.90
2019-04-14T07:25:03.593Z,99.90
2019-04-14T07:27:33.386Z,99.90
2019-04-14T07:30:21.239Z,99.90
2019-04-14T07:33:08.356Z,99.90
2019-04-14T07:35:47.963Z,99.90
2019-04-14T07:38:23.959Z,99.90
2019-04-14T07:41:24.607Z,99.90
2019-04-14T07:43:58.992Z,99.90
2019-04-14T07:46:47.376Z,99.90
2019-04-14T07:49:27.697Z,99.90
2019-04-14T07:52:22.630Z,99.90
2019-04-14T07:55:11.602Z,99.90
2019-04-14T07:57:54.732Z,99.90
2019-04-14T08:00:32.570Z,99.90
2019-04-14T08:03:09.401Z,99.90
2019-04-14T08:05:39.911Z,99.90
2019-04-14T08:08:09.293Z,99.90
2019-04-14T08:10:39.257Z,99.90
2019-04-14T08:13:09.406Z,99.20
2019-04-14T08:15:39.814Z,98.90
2019-04-14T08:18:10.303Z,99.20
2019-04-14T08:20:40.826Z,99.60
2019-04-14T08:23:10.930Z,99.50
2019-04-14T08:25:41.205Z,97.60
2019-04-14T08:28:11.518Z,96.80
2019-04-14T08:30:41.662Z,95.10
2019-04-14T08:33:11.108Z,95.30
2019-04-14T08:35:41.282Z,94.40
2019-04-14T08:38:11.073Z,95.10
2019-04-14T08:40:40.605Z,94.60
2019-04-14T08:43:30.093Z,94.40
2019-04-14T08:46:08.035Z,93.40
2019-04-14T08:48:56.733Z,93.00
2019-04-14T08:51:40.167Z,92.70
2019-04-14T08:54:41.362Z,91.70
2019-04-14T08:57:28.414Z,91.20
2019-04-14T09:00:06.954Z,90.70
2019-04-14T09:03:02.603Z,91.10
2019-04-14T09:05:54.180Z,89.50
2019-04-14T09:08:28.318Z,99.90
2019-04-14T09:11:00.588Z,99.90
2019-04-14T09:13:30.025Z,99.90
2019-04-14T09:15:59.808Z,99.90
2019-04-14T09:18:30.040Z,99.90
2019-04-14T09:21:00.354Z,97.20
2019-04-14T09:23:30.545Z,96.70
2019-04-14T09:26:00.484Z,93.70
2019-04-14T09:28:30.172Z,93.00
2019-04-14T09:31:00.815Z,92.30
2019-04-14T09:33:30.296Z,90.50
2019-04-14T09:36:00.347Z,88.00
2019-04-14T09:38:30.817Z,87.30
2019-04-14T09:41:00.693Z,89.50
2019-04-14T09:43:30.875Z,87.00
2019-04-14T09:46:00.685Z,84.50
2019-04-14T09:48:31.602Z,83.30
2019-04-14T09:51:05.026Z,87.00
2019-04-14T09:53:32.966Z,84.40
2019-04-14T09:56:05.036Z,83.50
2019-04-14T09:58:35.358Z,84.30
2019-04-14T10:01:04.824Z,80.00
2019-04-14T10:03:34.644Z,81.00
2019-04-14T10:06:04.411Z,79.70
2019-04-14T10:08:34.606Z,80.60
2019-04-14T10:11:05.754Z,78.70
2019-04-14T10:13:36.187Z,77.30
2019-04-14T10:16:05.985Z,75.80
2019-04-14T10:18:36.021Z,75.00
2019-04-14T10:21:16.810Z,76.10
2019-04-14T10:23:39.522Z,73.70
2019-04-14T10:26:09.954Z,73.30
2019-04-14T10:28:40.470Z,73.00
2019-04-14T10:31:10.735Z,71.00
2019-04-14T10:33:42.372Z,70.40
2019-04-14T10:36:12.886Z,69.50
2019-04-14T10:38:43.079Z,68.90
2019-04-14T10:41:12.844Z,66.60
2019-04-14T10:43:42.622Z,65.40
2019-04-14T10:46:12.463Z,67.40
2019-04-14T10:48:43.479Z,68.60
2019-04-14T10:51:13.533Z,65.80
2019-04-14T10:53:43.332Z,65.70
2019-04-14T10:56:13.131Z,64.00
2019-04-14T10:58:42.851Z,63.00
2019-04-14T11:01:13.099Z,63.90
2019-04-14T11:03:42.569Z,61.10
2019-04-14T11:06:37.806Z,61.50
2019-04-14T11:09:12.624Z,60.40
2019-04-14T11:11:42.553Z,60.00
2019-04-14T11:14:12.383Z,59.30
2019-04-14T11:16:42.821Z,59.00
2019-04-14T11:19:12.236Z,58.70
2019-04-14T11:21:43.125Z,57.40
2019-04-14T11:24:14.891Z,56.00
2019-04-14T11:26:43.290Z,57.10
2019-04-14T11:29:12.426Z,57.10
2019-04-14T11:31:59.753Z,57.90
2019-04-14T11:34:37.445Z,57.60
2019-04-14T11:37:32.388Z,57.40
2019-04-14T11:40:02.737Z,57.40
2019-04-14T11:42:32.940Z,56.40
2019-04-14T11:45:03.187Z,56.60
2019-04-14T11:47:33.196Z,57.20
2019-04-14T11:50:02.623Z,56.90
2019-04-14T11:52:32.581Z,55.80
2019-04-14T11:55:02.402Z,55.10
2019-04-14T11:57:32.117Z,55.90
2019-04-14T12:00:26.754Z,54.10
2019-04-14T12:03:19.176Z,53.60
2019-04-14T12:06:06.807Z,53.50
2019-04-14T12:08:48.913Z,53.70
2019-04-14T12:11:19.041Z,52.10
2019-04-14T12:13:48.613Z,51.90
2019-04-14T12:16:17.975Z,52.30
2019-04-14T12:18:47.367Z,53.30
2019-04-14T12:21:17.590Z,52.50
2019-04-14T12:23:47.586Z,52.90
2019-04-14T12:26:18.006Z,53.50
2019-04-14T12:28:47.714Z,52.60
2019-04-14T12:31:19.509Z,52.40
2019-04-14T12:33:49.758Z,52.90
2019-04-14T12:36:20.265Z,52.20
2019-04-14T12:38:50.718Z,51.90
2019-04-14T12:41:25.164Z,51.30
2019-04-14T12:44:28.822Z,50.90
2019-04-14T12:47:08.234Z,50.80
2019-04-14T12:49:40.538Z,51.20
2019-04-14T12:52:24.783Z,51.70
2019-04-14T12:54:54.163Z,51.50
2019-04-14T12:57:33.834Z,51.40
2019-04-14T13:00:06.809Z,51.20
2019-04-14T13:02:38.890Z,50.80
2019-04-14T13:05:08.377Z,50.00
2019-04-14T13:07:39.389Z,49.90
2019-04-14T13:10:09.427Z,50.20
2019-04-14T13:12:39.100Z,49.40
2019-04-14T13:15:09.570Z,49.00
2019-04-14T13:17:39.269Z,48.70
2019-04-14T13:20:08.974Z,48.90
2019-04-14T13:22:38.945Z,49.40
2019-04-14T13:25:08.896Z,49.40
2019-04-14T13:27:38.766Z,49.30
2019-04-14T13:30:11.452Z,48.30
2019-04-14T13:32:40.837Z,47.50
2019-04-14T13:35:11.046Z,47.50
2019-04-14T13:37:41.285Z,48.20
2019-04-14T13:40:11.337Z,48.80
2019-04-14T13:42:41.515Z,48.10
2019-04-14T13:45:12.033Z,48.00
2019-04-14T13:47:42.166Z,48.60
2019-04-14T13:50:11.637Z,48.80
2019-04-14T13:52:47.098Z,49.00
2019-04-14T13:55:13.817Z,49.00
2019-04-14T13:57:43.547Z,48.00
2019-04-14T14:00:13.924Z,48.10
2019-04-14T14:02:43.707Z,46.90
2019-04-14T14:05:13.855Z,46.70
2019-04-14T14:07:43.924Z,47.30
2019-04-14T14:10:13.872Z,47.40
2019-04-14T14:12:55.498Z,47.50
2019-04-14T14:15:39.764Z,48.20
2019-04-14T14:18:27.764Z,47.60
2019-04-14T14:21:14.914Z,47.50
2019-04-14T14:24:12.571Z,47.10
2019-04-14T14:26:41.283Z,46.40
2019-04-14T14:29:11.374Z,46.60
2019-04-14T14:31:41.129Z,46.60
2019-04-14T14:34:11.393Z,45.90
2019-04-14T14:36:41.242Z,45.40
2019-04-14T14:39:11.294Z,45.30
2019-04-14T14:41:41.336Z,45.20
2019-04-14T14:44:11.006Z,45.00
2019-04-14T14:47:05.017Z,43.80
2019-04-14T14:50:02.992Z,44.30
2019-04-14T14:52:33.540Z,44.40
2019-04-14T14:55:03.983Z,44.10
2019-04-14T14:57:34.078Z,44.30
2019-04-14T15:00:04.503Z,44.60
2019-04-14T15:02:34.284Z,44.60
2019-04-14T15:05:04.647Z,44.80
2019-04-14T15:07:34.779Z,45.60
2019-04-14T15:10:04.960Z,45.20
2019-04-14T15:12:35.393Z,44.10
2019-04-14T15:15:05.660Z,44.40
2019-04-14T15:17:35.802Z,42.90
2019-04-14T15:20:05.671Z,43.10
2019-04-14T15:22:36.110Z,44.00
2019-04-14T15:25:05.605Z,43.90
2019-04-14T15:27:35.818Z,43.20
2019-04-14T15:30:07.614Z,44.40
2019-04-14T15:32:37.082Z,44.20
2019-04-14T15:35:07.234Z,43.80
2019-04-14T15:37:37.326Z,43.70
2019-04-14T15:40:07.854Z,42.80
2019-04-14T15:42:38.267Z,43.40
2019-04-14T15:45:09.110Z,44.10
2019-04-14T15:47:38.563Z,44.30
2019-04-14T15:50:08.869Z,44.20
2019-04-14T15:52:38.779Z,43.60
2019-04-14T15:55:09.024Z,42.20
2019-04-14T15:58:00.749Z,42.30
2019-04-14T16:00:52.252Z,42.40
2019-04-14T16:03:41.638Z,42.50
2019-04-14T16:06:30.613Z,42.70
2019-04-14T16:09:12.361Z,43.60
2019-04-14T16:11:59.919Z,43.80
2019-04-14T16:15:00.728Z,43.40
2019-04-14T16:17:44.104Z,43.70
2019-04-14T16:20:20.136Z,42.90
2019-04-14T16:22:49.567Z,43.80
2019-04-14T16:25:20.561Z,44.00
2019-04-14T16:27:58.571Z,43.60
2019-04-14T16:30:49.988Z,43.20
2019-04-14T16:33:33.581Z,43.50
2019-04-14T16:36:03.735Z,43.60
2019-04-14T16:38:33.754Z,43.90
2019-04-14T16:41:03.524Z,44.00
2019-04-14T16:43:34.055Z,44.40
2019-04-14T16:46:04.216Z,44.80
2019-04-14T16:48:33.946Z,44.70
2019-04-14T16:51:04.618Z,45.30
2019-04-14T16:53:36.894Z,44.70
2019-04-14T16:56:14.801Z,44.80
2019-04-14T16:59:03.578Z,45.00
2019-04-14T17:01:38.959Z,45.70
2019-04-14T17:04:08.723Z,46.10
2019-04-14T17:06:39.273Z,46.40
2019-04-14T17:09:09.903Z,46.50
2019-04-14T17:11:40.197Z,47.30
2019-04-14T17:14:16.082Z,46.80
2019-04-14T17:17:13.875Z,46.80
2019-04-14T17:19:58.542Z,47.40
2019-04-14T17:22:47.501Z,47.90
2019-04-14T17:25:36.422Z,48.00
2019-04-14T17:28:25.772Z,49.10
2019-04-14T17:31:05.882Z,49.50
2019-04-14T17:33:43.238Z,50.10
2019-04-14T17:36:38.039Z,50.50
2019-04-14T17:39:32.880Z,50.60
2019-04-14T17:42:17.183Z,51.20
2019-04-14T17:45:04.491Z,51.60
2019-04-14T17:48:01.465Z,52.00
2019-04-14T17:50:45.810Z,52.60
2019-04-14T17:53:37.922Z,52.90
2019-04-14T17:56:23.452Z,53.10
2019-04-14T17:59:00.923Z,53.40
2019-04-14T18:01:43.359Z,53.50
2019-04-14T18:04:49.102Z,53.80
2019-04-14T18:07:24.642Z,53.80
2019-04-14T18:10:06.323Z,53.90
2019-04-14T18:13:13.175Z,54.50
2019-04-14T18:15:53.854Z,54.70
2019-04-14T18:18:35.174Z,55.00
2019-04-14T18:21:07.860Z,54.80
2019-04-14T18:23:38.394Z,55.30
2019-04-14T18:26:08.437Z,55.50
2019-04-14T18:29:09.057Z,55.00
2019-04-14T18:31:53.083Z,55.20
2019-04-14T18:34:48.040Z,55.60
2019-04-14T18:37:38.489Z,55.70
2019-04-14T18:40:19.068Z,55.60
2019-04-14T18:43:26.240Z,55.40
2019-04-14T18:46:00.332Z,55.90
2019-04-14T18:48:40.865Z,56.10
2019-04-14T18:51:16.193Z,55.90
2019-04-14T18:53:57.750Z,55.70
2019-04-14T18:56:45.022Z,56.40
2019-04-14T18:59:37.419Z,55.50
2019-04-14T19:02:08.034Z,56.20
2019-04-14T19:04:38.177Z,56.30
2019-04-14T19:07:08.002Z,56.20
2019-04-14T19:09:37.970Z,56.20
2019-04-14T19:12:42.183Z,56.40
2019-04-14T19:15:29.971Z,56.80
2019-04-14T19:18:18.871Z,56.80
2019-04-14T19:20:58.058Z,57.60
2019-04-14T19:23:27.470Z,57.70
2019-04-14T19:25:57.678Z,57.60
2019-04-14T19:28:27.574Z,58.40
2019-04-14T19:30:58.083Z,58.80
2019-04-14T19:33:28.153Z,58.90
2019-04-14T19:35:57.635Z,60.10
2019-04-14T19:38:27.074Z,60.50
2019-04-14T19:40:57.515Z,61.80
2019-04-14T19:43:27.464Z,62.30
2019-04-14T19:45:57.689Z,62.80
2019-04-14T19:48:27.783Z,63.40
2019-04-14T19:50:57.186Z,64.10
2019-04-14T19:53:26.964Z,65.00
2019-04-14T19:55:56.684Z,65.30
2019-04-14T19:58:27.202Z,66.20
2019-04-14T20:00:57.079Z,66.20
2019-04-14T20:03:27.300Z,67.00
2019-04-14T20:05:57.486Z,67.90
2019-04-14T20:08:28.742Z,68.00
2019-04-14T20:10:58.943Z,68.50
2019-04-14T20:13:31.215Z,69.20
2019-04-14T20:16:32.655Z,69.70
2019-04-14T20:19:24.444Z,70.30
2019-04-14T20:22:12.481Z,70.70
2019-04-14T20:24:51.906Z,71.30
2019-04-14T20:27:50.565Z,71.80
2019-04-14T20:30:42.658Z,71.80
2019-04-14T20:33:12.457Z,72.80
2019-04-14T20:35:42.238Z,73.90
2019-04-14T20:38:11.935Z,73.80
2019-04-14T20:40:42.421Z,74.90
2019-04-14T20:43:12.292Z,75.60
2019-04-14T20:45:42.100Z,76.30
2019-04-14T20:48:12.305Z,76.00
2019-04-14T20:50:42.013Z,76.60
2019-04-14T20:53:11.804Z,76.80
2019-04-14T20:55:47.175Z,77.60
2019-04-14T20:58:13.234Z,78.50
2019-04-14T21:00:43.483Z,78.90
2019-04-14T21:03:32.200Z,78.80
2019-04-14T21:06:26.880Z,79.90
2019-04-14T21:09:14.731Z,80.10
2019-04-14T21:11:52.439Z,81.60
2019-04-14T21:14:43.639Z,82.30
2019-04-14T21:17:25.374Z,82.90
2019-04-14T21:20:07.156Z,83.40
2019-04-14T21:22:55.795Z,84.00
2019-04-14T21:25:59.320Z,84.70
2019-04-14T21:28:43.437Z,85.60
2019-04-14T21:31:27.631Z,86.40
2019-04-14T21:34:07.791Z,87.50
2019-04-14T21:36:50.203Z,87.50
2019-04-14T21:39:35.451Z,88.70
2019-04-14T21:42:05.298Z,89.70
2019-04-14T21:44:35.667Z,90.30
2019-04-14T21:47:05.850Z,91.30
2019-04-14T21:49:36.328Z,91.30
2019-04-14T21:52:25.504Z,91.50
2019-04-14T21:54:55.216Z,92.10
2019-04-14T21:57:34.572Z,92.50
2019-04-14T22:00:30.527Z,92.70
2019-04-14T22:03:18.617Z,93.10
2019-04-14T22:05:58.562Z,93.60
2019-04-14T22:08:31.893Z,94.00
2019-04-14T22:11:05.008Z,94.30
2019-04-14T22:13:34.426Z,94.90
2019-04-14T22:16:04.919Z,95.10
2019-04-14T22:18:34.701Z,95.60
2019-04-14T22:21:05.023Z,96.00
2019-04-14T22:23:35.001Z,96.50
2019-04-14T22:26:05.044Z,96.50
2019-04-14T22:28:34.734Z,97.00
2019-04-14T22:31:04.134Z,97.50
2019-04-14T22:33:34.190Z,97.70
2019-04-14T22:36:04.387Z,98.20
2019-04-14T22:38:34.453Z,98.70
2019-04-14T22:41:04.832Z,99.40
2019-04-14T22:43:34.342Z,99.40
2019-04-14T22:46:03.990Z,99.90
2019-04-14T22:48:33.689Z,99.90
2019-04-14T22:51:03.092Z,99.90
2019-04-14T22:53:33.232Z,99.90
2019-04-14T22:56:02.968Z,99.90
2019-04-14T22:58:33.048Z,99.90
2019-04-14T23:01:21.260Z,99.90
2019-04-14T23:04:00.940Z,99.90
2019-04-14T23:06:52.782Z,99.90
2019-04-14T23:09:28.128Z,99.90
2019-04-14T23:12:16.801Z,99.90
2019-04-14T23:15:14.803Z,99.90
2019-04-14T23:18:01.846Z,99.90
2019-04-14T23:20:50.242Z,99.90
2019-04-14T23:23:45.117Z,99.90
2019-04-14T23:26:14.866Z,99.90
2019-04-14T23:28:44.521Z,99.90
2019-04-14T23:31:14.559Z,99.90
2019-04-14T23:33:44.576Z,99.90
2019-04-14T23:36:14.705Z,99.90
2019-04-14T23:38:44.716Z,99.90
2019-04-14T23:41:14.093Z,99.90
2019-04-14T23:43:45.047Z,99.90
2019-04-14T23:46:15.194Z,99.90
2019-04-14T23:48:45.024Z,99.90
2019-04-14T23:51:14.493Z,99.90
2019-04-14T23:53:44.611Z,99.90
2019-04-14T23:56:14.426Z,99.90
2019-04-14T23:58:44.229Z,99.90
